createdAt,value
2018-02-27T00:02:23.671Z,-5.60
2018-02-27T00:04:49.651Z,-5.47
2018-02-27T00:07:15.611Z,-5.52
2018-02-27T00:09:43.116Z,-5.78
2018-02-27T00:12:09.072Z,-5.82
2018-02-27T00:14:35.033Z,-5.79
2018-02-27T00:17:01.004Z,-5.63
2018-02-27T00:19:28.039Z,-5.61
2018-02-27T00:21:53.983Z,-5.68
2018-02-27T00:24:19.938Z,-5.55
2018-02-27T00:26:45.915Z,-5.93
2018-02-27T00:29:11.862Z,-5.75
2018-02-27T00:31:37.806Z,-5.98
2018-02-27T00:34:03.778Z,-5.93
2018-02-27T00:36:29.735Z,-5.92
2018-02-27T00:38:55.668Z,-5.95
2018-02-27T00:41:21.634Z,-5.93
2018-02-27T00:43:47.596Z,-5.96
2018-02-27T00:46:13.532Z,-5.88
2018-02-27T00:48:39.469Z,-5.67
2018-02-27T00:51:05.426Z,-6.07
2018-02-27T00:53:31.378Z,-6.15
2018-02-27T00:55:57.321Z,-5.80
2018-02-27T00:58:23.295Z,-5.80
2018-02-27T01:00:49.249Z,-6.19
2018-02-27T01:03:15.193Z,-6.30
2018-02-27T01:05:41.136Z,-6.26
2018-02-27T01:08:07.080Z,-6.08
2018-02-27T01:10:33.030Z,-6.27
2018-02-27T01:12:59.016Z,-6.31
2018-02-27T01:15:24.974Z,-6.27
2018-02-27T01:17:50.912Z,-5.87
2018-02-27T01:20:16.838Z,-6.09
2018-02-27T01:22:42.766Z,-6.26
2018-02-27T01:25:08.702Z,-6.23
2018-02-27T01:27:34.662Z,-6.25
2018-02-27T01:30:00.630Z,-6.20
2018-02-27T01:32:26.600Z,-6.17
2018-02-27T01:34:52.546Z,-6.12
2018-02-27T01:37:18.494Z,-5.69
2018-02-27T01:39:44.458Z,-6.37
2018-02-27T01:42:10.468Z,-5.59
2018-02-27T01:44:36.426Z,-6.29
2018-02-27T01:47:02.412Z,-6.45
2018-02-27T01:49:28.390Z,-6.52
2018-02-27T01:51:54.322Z,-6.19
2018-02-27T01:54:20.270Z,-6.51
2018-02-27T01:56:46.218Z,-6.48
2018-02-27T01:59:12.162Z,-6.41
2018-02-27T02:01:38.138Z,-6.72
2018-02-27T02:04:04.079Z,-6.83
2018-02-27T02:06:30.096Z,-6.72
2018-02-27T02:08:56.082Z,-6.56
2018-02-27T02:11:22.024Z,-6.22
2018-02-27T02:13:47.980Z,-6.48
2018-02-27T02:16:13.924Z,-6.55
2018-02-27T02:18:39.890Z,-6.31
2018-02-27T02:21:05.848Z,-6.47
2018-02-27T02:23:31.834Z,-6.60
2018-02-27T02:25:57.780Z,-6.06
2018-02-27T02:28:23.724Z,-6.31
2018-02-27T02:30:49.662Z,-6.42
2018-02-27T02:33:15.631Z,-6.64
2018-02-27T02:35:41.583Z,-6.46
2018-02-27T02:38:07.562Z,-6.49
2018-02-27T02:40:33.486Z,-6.73
2018-02-27T02:42:59.458Z,-7.15
2018-02-27T02:45:25.453Z,-7.03
2018-02-27T02:47:51.472Z,-6.55
2018-02-27T02:50:17.422Z,-7.14
2018-02-27T02:52:43.362Z,-6.49
2018-02-27T02:55:09.312Z,-6.32
2018-02-27T02:57:35.286Z,-6.85
2018-02-27T03:00:01.231Z,-6.52
2018-02-27T03:02:27.174Z,-6.49
2018-02-27T03:04:53.120Z,-6.28
2018-02-27T03:07:19.063Z,-6.64
2018-02-27T03:09:45.002Z,-6.86
2018-02-27T03:12:10.933Z,-6.67
2018-02-27T03:14:36.919Z,-6.67
2018-02-27T03:17:03.226Z,-6.72
2018-02-27T03:19:29.168Z,-6.69
2018-02-27T03:21:55.196Z,-6.53
2018-02-27T03:24:21.134Z,-6.96
2018-02-27T03:26:47.065Z,-6.99
2018-02-27T03:29:13.014Z,-7.08
2018-02-27T03:31:38.954Z,-6.89
2018-02-27T03:34:04.940Z,-7.05
2018-02-27T03:36:30.867Z,-6.71
2018-02-27T03:38:56.827Z,-6.67
2018-02-27T03:41:22.775Z,-6.83
2018-02-27T03:43:48.759Z,-6.89
2018-02-27T03:46:14.729Z,-6.48
2018-02-27T03:48:40.685Z,-6.43
2018-02-27T03:51:06.656Z,-6.67
2018-02-27T03:53:32.587Z,-6.72
2018-02-27T03:55:58.582Z,-6.36
2018-02-27T03:58:24.531Z,-6.56
2018-02-27T04:00:50.451Z,-6.48
2018-02-27T04:03:16.410Z,-6.58
2018-02-27T04:05:42.351Z,-6.56
2018-02-27T04:08:08.322Z,-6.58
2018-02-27T04:10:34.301Z,-6.86
2018-02-27T04:13:00.263Z,-6.89
2018-02-27T04:15:26.255Z,-6.36
2018-02-27T04:17:52.240Z,-6.47
2018-02-27T04:20:18.243Z,-6.47
2018-02-27T04:22:44.197Z,-6.91
2018-02-27T04:25:10.171Z,-6.90
2018-02-27T04:27:36.134Z,-6.72
2018-02-27T04:30:02.085Z,-6.72
2018-02-27T04:32:28.040Z,-6.87
2018-02-27T04:34:54.001Z,-7.09
2018-02-27T04:37:19.963Z,-6.86
2018-02-27T04:39:45.927Z,-6.97
2018-02-27T04:42:11.877Z,-6.86
2018-02-27T04:44:37.907Z,-6.83
2018-02-27T04:47:03.859Z,-7.05
2018-02-27T04:49:29.793Z,-7.14
2018-02-27T04:51:55.782Z,-6.90
2018-02-27T04:54:21.791Z,-7.20
2018-02-27T04:56:47.751Z,-6.60
2018-02-27T04:59:13.689Z,-7.41
2018-02-27T05:01:39.668Z,-7.27
2018-02-27T05:04:05.619Z,-6.80
2018-02-27T05:06:31.571Z,-7.45
2018-02-27T05:08:57.525Z,-7.71
2018-02-27T05:11:23.521Z,-7.49
2018-02-27T05:13:49.463Z,-7.57
2018-02-27T05:16:15.430Z,-6.70
2018-02-27T05:18:41.387Z,-7.31
2018-02-27T05:21:07.327Z,-7.35
2018-02-27T05:23:33.276Z,-7.55
2018-02-27T05:25:59.244Z,-7.20
2018-02-27T05:28:25.223Z,-7.55
2018-02-27T05:30:51.178Z,-6.96
2018-02-27T05:33:17.143Z,-7.19
2018-02-27T05:35:43.079Z,-7.07
2018-02-27T05:38:09.056Z,-7.30
2018-02-27T05:40:35.025Z,-7.38
2018-02-27T05:43:01.007Z,-7.17
2018-02-27T05:45:27.067Z,-7.33
2018-02-27T05:47:53.053Z,-7.09
2018-02-27T05:50:19.129Z,-7.26
2018-02-27T05:52:45.095Z,-7.47
2018-02-27T05:55:11.077Z,-7.23
2018-02-27T05:57:37.062Z,-7.16
2018-02-27T06:00:03.032Z,-7.30
2018-02-27T06:02:28.980Z,-7.42
2018-02-27T06:04:54.979Z,-7.48
2018-02-27T06:07:20.937Z,-7.50
2018-02-27T06:09:46.899Z,-7.09
2018-02-27T06:12:12.886Z,-7.09
2018-02-27T06:14:38.855Z,-7.54
2018-02-27T06:17:04.820Z,-7.38
2018-02-27T06:19:31.115Z,-7.62
2018-02-27T06:21:57.114Z,-7.49
2018-02-27T06:24:23.094Z,-7.11
2018-02-27T06:26:49.028Z,-7.45
2018-02-27T06:29:14.989Z,-7.64
2018-02-27T06:31:40.975Z,-7.45
2018-02-27T06:34:06.937Z,-7.25
2018-02-27T06:36:32.974Z,-7.43
2018-02-27T06:38:58.963Z,-7.41
2018-02-27T06:41:24.958Z,-7.36
2018-02-27T06:43:50.939Z,-7.18
2018-02-27T06:46:16.912Z,-6.54
2018-02-27T06:48:42.887Z,-6.49
2018-02-27T06:51:10.006Z,-6.33
2018-02-27T06:53:36.049Z,-6.15
2018-02-27T06:56:01.999Z,-5.86
2018-02-27T06:58:27.956Z,-5.80
2018-02-27T07:00:53.902Z,-5.75
2018-02-27T07:03:19.846Z,-5.75
2018-02-27T07:05:45.776Z,-5.92
2018-02-27T07:08:11.764Z,-5.18
2018-02-27T07:10:37.702Z,-5.08
2018-02-27T07:13:03.654Z,-5.73
2018-02-27T07:15:29.611Z,-5.55
2018-02-27T07:17:55.608Z,-5.42
2018-02-27T07:20:21.590Z,-4.81
2018-02-27T07:22:47.542Z,-4.69
2018-02-27T07:25:13.532Z,-4.55
2018-02-27T07:27:39.502Z,-5.72
2018-02-27T07:30:05.455Z,-5.30
2018-02-27T07:32:31.399Z,-4.98
2018-02-27T07:34:57.403Z,-4.36
2018-02-27T07:37:23.352Z,-4.52
2018-02-27T07:39:49.298Z,-4.12
2018-02-27T07:42:15.291Z,-3.97
2018-02-27T07:44:41.309Z,-3.82
2018-02-27T07:47:07.326Z,-4.16
2018-02-27T07:49:33.307Z,-4.31
2018-02-27T07:51:59.314Z,-4.44
2018-02-27T07:54:25.260Z,-4.29
2018-02-27T07:56:51.193Z,-4.58
2018-02-27T07:59:17.195Z,-3.96
2018-02-27T08:01:43.201Z,-3.96
2018-02-27T08:04:09.217Z,-4.38
2018-02-27T08:06:35.107Z,-4.29
2018-02-27T08:09:01.066Z,-4.25
2018-02-27T08:11:27.018Z,-4.33
2018-02-27T08:13:52.974Z,-3.97
2018-02-27T08:16:19.029Z,-4.13
2018-02-27T08:18:45.077Z,-4.37
2018-02-27T08:21:11.043Z,-4.13
2018-02-27T08:23:37.028Z,-3.63
2018-02-27T08:26:03.027Z,-3.34
2018-02-27T08:28:28.974Z,-3.64
2018-02-27T08:30:54.898Z,-4.13
2018-02-27T08:33:20.981Z,-3.64
2018-02-27T08:35:46.949Z,-3.58
2018-02-27T08:38:12.910Z,-3.79
2018-02-27T08:40:38.864Z,-3.70
2018-02-27T08:43:05.015Z,-2.86
2018-02-27T08:45:30.979Z,-3.20
2018-02-27T08:47:56.922Z,-2.67
2018-02-27T08:50:22.937Z,-2.27
2018-02-27T08:52:48.906Z,-2.78
2018-02-27T08:55:14.887Z,-3.02
2018-02-27T08:57:40.838Z,-3.03
2018-02-27T09:00:06.787Z,-2.69
2018-02-27T09:02:32.735Z,-2.91
2018-02-27T09:04:58.684Z,-3.15
2018-02-27T09:07:24.643Z,-3.51
2018-02-27T09:09:50.725Z,-3.52
2018-02-27T09:12:16.667Z,-3.77
2018-02-27T09:14:42.654Z,-3.13
2018-02-27T09:17:08.574Z,-3.43
2018-02-27T09:19:34.536Z,-4.23
2018-02-27T09:22:00.487Z,-3.43
2018-02-27T09:24:26.502Z,-2.55
2018-02-27T09:26:52.463Z,-2.64
2018-02-27T09:29:18.481Z,-1.99
2018-02-27T09:31:44.428Z,-2.65
2018-02-27T09:34:10.382Z,-2.87
2018-02-27T09:36:36.369Z,-3.19
2018-02-27T09:39:02.329Z,-3.61
2018-02-27T09:41:28.341Z,-3.41
2018-02-27T09:43:54.274Z,-3.36
2018-02-27T09:46:20.243Z,-3.22
2018-02-27T09:48:46.198Z,-3.19
2018-02-27T09:51:12.188Z,-3.65
2018-02-27T09:53:38.122Z,-3.11
2018-02-27T09:56:04.069Z,-3.44
2018-02-27T09:58:30.045Z,-3.61
2018-02-27T10:00:56.027Z,-3.45
2018-02-27T10:03:21.984Z,-3.09
2018-02-27T10:05:47.932Z,-3.54
2018-02-27T10:08:13.878Z,-3.51
2018-02-27T10:10:39.813Z,-3.09
2018-02-27T10:13:05.810Z,-3.12
2018-02-27T10:15:31.751Z,-3.25
2018-02-27T10:17:57.699Z,-3.35
2018-02-27T10:20:23.655Z,-2.45
2018-02-27T10:22:49.578Z,-2.30
2018-02-27T10:25:15.521Z,-2.92
2018-02-27T10:27:41.554Z,-2.93
2018-02-27T10:30:07.511Z,-3.06
2018-02-27T10:32:33.452Z,-2.72
2018-02-27T10:34:59.402Z,-2.99
2018-02-27T10:37:25.342Z,-2.92
2018-02-27T10:39:51.297Z,-3.20
2018-02-27T10:42:17.269Z,-2.51
2018-02-27T10:44:43.198Z,-2.61
2018-02-27T10:47:09.142Z,-2.70
2018-02-27T10:49:35.145Z,-2.78
2018-02-27T10:52:01.079Z,-3.28
2018-02-27T10:54:27.371Z,-3.22
2018-02-27T10:56:53.338Z,-2.97
2018-02-27T10:59:19.269Z,-2.85
2018-02-27T11:01:45.243Z,-3.35
2018-02-27T11:04:11.170Z,-3.47
2018-02-27T11:06:37.161Z,-2.40
2018-02-27T11:09:03.106Z,-2.32
2018-02-27T11:11:29.071Z,-2.85
2018-02-27T11:13:55.003Z,-3.44
2018-02-27T11:16:20.971Z,-3.40
2018-02-27T11:18:47.277Z,-3.15
2018-02-27T11:21:13.219Z,-3.31
2018-02-27T11:23:39.175Z,-3.48
2018-02-27T11:26:05.211Z,-2.91
2018-02-27T11:28:31.186Z,-3.13
2018-02-27T11:30:57.127Z,-2.46
2018-02-27T11:33:23.063Z,-2.97
2018-02-27T11:35:48.998Z,-2.78
2018-02-27T11:38:14.939Z,-3.27
2018-02-27T11:40:40.872Z,-3.36
2018-02-27T11:43:06.863Z,-3.02
2018-02-27T11:45:32.803Z,-2.95
2018-02-27T11:47:58.740Z,-2.75
2018-02-27T11:50:24.842Z,-3.52
2018-02-27T11:52:50.791Z,-3.06
2018-02-27T11:55:16.743Z,-3.08
2018-02-27T11:57:42.709Z,-2.78
2018-02-27T12:00:08.706Z,-2.85
2018-02-27T12:02:34.697Z,-2.95
2018-02-27T12:05:00.650Z,-2.97
2018-02-27T12:07:26.583Z,-2.45
2018-02-27T12:09:52.607Z,-2.98
2018-02-27T12:12:18.555Z,-3.14
2018-02-27T12:14:44.556Z,-3.73
2018-02-27T12:17:10.529Z,-3.79
2018-02-27T12:19:36.474Z,-3.86
2018-02-27T12:22:02.423Z,-3.94
2018-02-27T12:24:28.383Z,-3.84
2018-02-27T12:26:54.326Z,-3.23
2018-02-27T12:29:20.326Z,-3.21
2018-02-27T12:31:46.229Z,-3.07
2018-02-27T12:34:12.177Z,-2.67
2018-02-27T12:36:38.107Z,-2.67
2018-02-27T12:39:04.081Z,-2.92
2018-02-27T12:41:30.017Z,-2.71
2018-02-27T12:43:55.973Z,-2.52
2018-02-27T12:46:21.900Z,-2.22
2018-02-27T12:48:47.870Z,-2.71
2018-02-27T12:51:13.856Z,-2.76
2018-02-27T12:53:39.814Z,-2.46
2018-02-27T12:56:05.764Z,-2.42
2018-02-27T12:58:31.755Z,-2.76
2018-02-27T13:00:57.713Z,-2.70
2018-02-27T13:03:23.674Z,-3.01
2018-02-27T13:05:49.612Z,-2.83
2018-02-27T13:08:15.567Z,-2.61
2018-02-27T13:10:41.531Z,-2.08
2018-02-27T13:13:07.491Z,-2.60
2018-02-27T13:15:33.444Z,-3.10
2018-02-27T13:17:59.440Z,-2.45
2018-02-27T13:20:25.370Z,-2.30
2018-02-27T13:22:51.306Z,-2.23
2018-02-27T13:25:17.246Z,-2.38
2018-02-27T13:27:43.214Z,-2.19
2018-02-27T13:30:09.145Z,-2.33
2018-02-27T13:32:35.178Z,-2.66
2018-02-27T13:35:01.070Z,-2.42
2018-02-27T13:37:26.995Z,-2.47
2018-02-27T13:39:52.954Z,-2.14
2018-02-27T13:42:18.930Z,-2.36
2018-02-27T13:44:44.932Z,-2.34
2018-02-27T13:47:10.900Z,-2.49
2018-02-27T13:49:36.876Z,-2.43
2018-02-27T13:52:02.830Z,-2.34
2018-02-27T13:54:28.830Z,-2.11
2018-02-27T13:56:54.802Z,-2.03
2018-02-27T13:59:20.751Z,-2.20
2018-02-27T14:01:46.729Z,-3.07
2018-02-27T14:04:12.681Z,-2.74
2018-02-27T14:06:38.622Z,-2.30
2018-02-27T14:09:04.572Z,-2.23
2018-02-27T14:11:30.608Z,-1.98
2018-02-27T14:13:56.550Z,-1.96
2018-02-27T14:16:22.499Z,-1.99
2018-02-27T14:18:48.462Z,-1.78
2018-02-27T14:21:14.408Z,-1.99
2018-02-27T14:23:40.359Z,-1.92
2018-02-27T14:26:06.319Z,-2.00
2018-02-27T14:28:32.288Z,-1.46
2018-02-27T14:30:59.306Z,-1.51
2018-02-27T14:33:25.374Z,-2.32
2018-02-27T14:35:51.365Z,-1.87
2018-02-27T14:38:17.337Z,-1.97
2018-02-27T14:40:43.277Z,-1.84
2018-02-27T14:43:09.226Z,-1.74
2018-02-27T14:45:35.178Z,-1.79
2018-02-27T14:48:01.133Z,-1.76
2018-02-27T14:50:27.072Z,-1.75
2018-02-27T14:52:53.011Z,-1.78
2018-02-27T14:55:18.977Z,-1.71
2018-02-27T14:57:44.957Z,-1.69
2018-02-27T15:00:10.919Z,-1.76
2018-02-27T15:02:36.870Z,-1.63
2018-02-27T15:05:02.842Z,-1.73
2018-02-27T15:07:28.853Z,-1.68
2018-02-27T15:09:54.790Z,-1.72
2018-02-27T15:12:20.741Z,-1.51
2018-02-27T15:14:46.733Z,-1.73
2018-02-27T15:17:12.690Z,-1.98
2018-02-27T15:19:38.629Z,-2.03
2018-02-27T15:22:04.611Z,-1.73
2018-02-27T15:24:30.638Z,-1.55
2018-02-27T15:26:56.601Z,-1.69
2018-02-27T15:29:22.547Z,-1.41
2018-02-27T15:31:48.573Z,-1.29
2018-02-27T15:34:14.511Z,-1.63
2018-02-27T15:36:40.484Z,-1.54
2018-02-27T15:39:06.438Z,-1.63
2018-02-27T15:41:32.403Z,-2.00
2018-02-27T15:43:58.390Z,-1.65
2018-02-27T15:46:24.363Z,-1.52
2018-02-27T15:48:50.319Z,-1.45
2018-02-27T15:51:16.298Z,-1.56
2018-02-27T15:53:42.269Z,-1.73
2018-02-27T15:56:08.231Z,-1.68
2018-02-27T15:58:34.185Z,-1.68
2018-02-27T16:01:00.184Z,-1.87
2018-02-27T16:03:26.149Z,-1.69
2018-02-27T16:05:52.186Z,-1.93
2018-02-27T16:08:18.163Z,-2.37
2018-02-27T16:10:44.428Z,-2.29
2018-02-27T16:13:10.373Z,-2.41
2018-02-27T16:15:36.375Z,-2.31
2018-02-27T16:18:02.435Z,-2.39
2018-02-27T16:20:28.442Z,-2.31
2018-02-27T16:22:54.391Z,-2.28
2018-02-27T16:25:20.323Z,-2.28
2018-02-27T16:27:46.283Z,-2.25
2018-02-27T16:30:12.239Z,-2.18
2018-02-27T16:32:38.173Z,-2.22
2018-02-27T16:35:04.178Z,-2.31
2018-02-27T16:37:30.203Z,-2.19
2018-02-27T16:39:56.164Z,-2.08
2018-02-27T16:42:22.107Z,-2.01
2018-02-27T16:44:48.097Z,-2.14
2018-02-27T16:47:14.040Z,-1.97
2018-02-27T16:49:39.999Z,-2.18
2018-02-27T16:52:06.017Z,-2.74
2018-02-27T16:54:32.106Z,-2.26
2018-02-27T16:56:58.074Z,-2.19
2018-02-27T16:59:24.139Z,-2.25
2018-02-27T17:01:50.216Z,-2.22
2018-02-27T17:04:16.169Z,-2.52
2018-02-27T17:06:42.129Z,-1.99
2018-02-27T17:09:08.100Z,-2.11
2018-02-27T17:11:34.060Z,-2.19
2018-02-27T17:14:00.012Z,-2.01
2018-02-27T17:16:25.948Z,-2.05
2018-02-27T17:18:51.962Z,-2.32
2018-02-27T17:21:17.904Z,-2.39
2018-02-27T17:23:43.951Z,-2.41
2018-02-27T17:26:09.954Z,-2.08
2018-02-27T17:28:36.021Z,-2.29
2018-02-27T17:31:01.995Z,-2.05
2018-02-27T17:33:28.009Z,-1.87
2018-02-27T17:35:53.980Z,-2.44
2018-02-27T17:38:19.974Z,-2.21
2018-02-27T17:40:45.934Z,-2.31
2018-02-27T17:43:11.879Z,-2.64
2018-02-27T17:45:37.820Z,-2.08
2018-02-27T17:48:03.765Z,-2.15
2018-02-27T17:50:29.720Z,-2.65
2018-02-27T17:52:55.665Z,-2.74
2018-02-27T17:55:21.638Z,-2.52
2018-02-27T17:57:47.593Z,-2.57
2018-02-27T18:00:13.588Z,-2.24
2018-02-27T18:02:39.542Z,-2.40
2018-02-27T18:05:05.480Z,-2.35
2018-02-27T18:07:31.438Z,-2.82
2018-02-27T18:09:57.410Z,-2.56
2018-02-27T18:12:23.373Z,-2.77
2018-02-27T18:14:49.338Z,-2.50
2018-02-27T18:17:15.298Z,-2.98
2018-02-27T18:19:41.272Z,-2.65
2018-02-27T18:22:07.214Z,-3.05
2018-02-27T18:24:33.216Z,-2.91
2018-02-27T18:26:59.277Z,-3.15
2018-02-27T18:29:25.304Z,-2.97
2018-02-27T18:31:51.258Z,-2.80
2018-02-27T18:34:17.251Z,-2.48
2018-02-27T18:36:43.207Z,-2.84
2018-02-27T18:39:09.172Z,-2.96
2018-02-27T18:41:35.123Z,-2.82
2018-02-27T18:44:01.277Z,-2.70
2018-02-27T18:46:27.241Z,-3.27
2018-02-27T18:48:53.474Z,-2.78
2018-02-27T18:51:19.453Z,-2.81
2018-02-27T18:53:45.385Z,-3.00
2018-02-27T18:56:11.326Z,-2.86
2018-02-27T18:58:37.294Z,-3.06
2018-02-27T19:01:03.309Z,-3.25
2018-02-27T19:03:29.315Z,-2.92
2018-02-27T19:05:55.263Z,-3.17
2018-02-27T19:08:21.208Z,-3.25
2018-02-27T19:10:47.144Z,-3.31
2018-02-27T19:13:13.120Z,-3.19
2018-02-27T19:15:39.087Z,-3.31
2018-02-27T19:18:05.040Z,-3.41
2018-02-27T19:20:31.003Z,-3.40
2018-02-27T19:22:56.973Z,-3.23
2018-02-27T19:25:22.931Z,-3.39
2018-02-27T19:27:48.907Z,-3.52
2018-02-27T19:30:14.947Z,-3.35
2018-02-27T19:32:40.927Z,-3.39
2018-02-27T19:35:06.862Z,-3.57
2018-02-27T19:37:32.882Z,-3.47
2018-02-27T19:39:58.874Z,-3.66
2018-02-27T19:42:24.835Z,-3.55
2018-02-27T19:44:50.812Z,-3.18
2018-02-27T19:47:16.774Z,-3.44
2018-02-27T19:49:42.729Z,-3.44
2018-02-27T19:52:08.720Z,-3.61
2018-02-27T19:54:34.684Z,-3.24
2018-02-27T19:57:00.644Z,-3.58
2018-02-27T19:59:26.602Z,-3.34
2018-02-27T20:01:52.545Z,-2.94
2018-02-27T20:04:18.504Z,-3.40
2018-02-27T20:06:45.495Z,-3.15
2018-02-27T20:09:11.428Z,-3.04
2018-02-27T20:11:37.398Z,-3.31
2018-02-27T20:14:03.384Z,-3.39
2018-02-27T20:16:29.423Z,-3.17
2018-02-27T20:18:55.412Z,-3.24
2018-02-27T20:21:21.386Z,-3.83
2018-02-27T20:23:47.360Z,-3.80
2018-02-27T20:26:13.316Z,-3.49
2018-02-27T20:28:39.275Z,-3.75
2018-02-27T20:31:05.232Z,-4.26
2018-02-27T20:33:31.214Z,-3.91
2018-02-27T20:35:57.195Z,-3.73
2018-02-27T20:38:23.154Z,-3.59
2018-02-27T20:40:49.165Z,-4.17
2018-02-27T20:43:15.337Z,-4.06
2018-02-27T20:45:41.308Z,-4.50
2018-02-27T20:48:07.295Z,-4.36
2018-02-27T20:50:33.342Z,-3.77
2018-02-27T20:52:59.427Z,-3.89
2018-02-27T20:55:25.426Z,-3.68
2018-02-27T20:57:51.389Z,-3.88
2018-02-27T21:00:17.487Z,-3.91
2018-02-27T21:02:43.561Z,-3.96
2018-02-27T21:05:09.537Z,-4.23
2018-02-27T21:07:35.546Z,-4.30
2018-02-27T21:10:01.500Z,-4.16
2018-02-27T21:12:27.485Z,-4.28
2018-02-27T21:14:53.439Z,-4.26
2018-02-27T21:17:19.387Z,-4.13
2018-02-27T21:19:45.360Z,-4.23
2018-02-27T21:22:11.310Z,-4.28
2018-02-27T21:24:37.264Z,-3.97
2018-02-27T21:27:03.214Z,-4.08
2018-02-27T21:29:29.164Z,-4.12
2018-02-27T21:31:55.119Z,-4.42
2018-02-27T21:34:21.072Z,-4.27
2018-02-27T21:36:47.031Z,-3.88
2018-02-27T21:39:13.022Z,-4.34
2018-02-27T21:41:39.034Z,-3.85
2018-02-27T21:44:05.000Z,-3.81
2018-02-27T21:46:31.024Z,-4.43
2018-02-27T21:48:57.010Z,-4.23
2018-02-27T21:51:22.960Z,-3.97
2018-02-27T21:53:49.942Z,-4.18
2018-02-27T21:56:15.988Z,-4.22
2018-02-27T21:58:41.984Z,-4.13
2018-02-27T22:01:07.956Z,-4.43
2018-02-27T22:03:33.906Z,-4.19
2018-02-27T22:05:59.856Z,-4.36
2018-02-27T22:08:26.849Z,-4.32
2018-02-27T22:10:52.826Z,-4.20
2018-02-27T22:13:18.846Z,-4.17
2018-02-27T22:15:44.808Z,-4.10
2018-02-27T22:18:10.775Z,-4.49
2018-02-27T22:20:36.715Z,-4.72
2018-02-27T22:23:03.585Z,-4.71
2018-02-27T22:25:29.508Z,-4.58
2018-02-27T22:27:55.446Z,-4.24
2018-02-27T22:30:21.416Z,-4.50
2018-02-27T22:32:47.365Z,-4.58
2018-02-27T22:35:13.292Z,-4.58
2018-02-27T22:37:39.214Z,-4.56
2018-02-27T22:40:05.224Z,-4.13
2018-02-27T22:42:31.168Z,-4.74
2018-02-27T22:44:57.102Z,-4.38
2018-02-27T22:47:23.069Z,-4.10
2018-02-27T22:49:49.018Z,-4.39
2018-02-27T22:52:14.952Z,-4.40
2018-02-27T22:54:40.904Z,-4.05
2018-02-27T22:57:06.834Z,-4.64
2018-02-27T22:59:32.775Z,-4.42
2018-02-27T23:01:58.734Z,-4.71
2018-02-27T23:04:24.742Z,-4.43
2018-02-27T23:06:50.694Z,-4.63
2018-02-27T23:09:16.665Z,-4.09
2018-02-27T23:11:42.615Z,-4.39
2018-02-27T23:14:08.578Z,-4.82
2018-02-27T23:16:34.514Z,-4.66
2018-02-27T23:19:00.450Z,-4.55
2018-02-27T23:21:26.406Z,-4.51
2018-02-27T23:23:52.403Z,-5.03
2018-02-27T23:26:18.356Z,-4.85
2018-02-27T23:28:44.399Z,-4.67
2018-02-27T23:31:10.326Z,-4.64
2018-02-27T23:33:36.266Z,-5.03
2018-02-27T23:36:02.206Z,-5.21
2018-02-27T23:38:28.848Z,-4.43
2018-02-27T23:40:54.799Z,-5.01
2018-02-27T23:43:20.781Z,-5.29
2018-02-27T23:45:46.746Z,-5.01
2018-02-27T23:48:12.710Z,-5.10
2018-02-27T23:50:38.642Z,-4.65
2018-02-27T23:53:04.620Z,-5.04
2018-02-27T23:55:30.543Z,-5.13
2018-02-27T23:57:56.506Z,-5.18
